Time;durP1;ratioP1;P1;durP2;ratioP2;P2;SDS_P1;SDS_P2;PMS_P1;PMS_P2;Temp;Humidity;BMP_temperature;BMP_pressure;BME280_temperature;BME280_humidity;BME280_pressure;Samples;Min_cycle;Max_cycle;Signal;HPM_P1;HPM_P2
2021/12/22 06:01:03;;;;;;;1999.90;999.90;;;;;;;;;;5901610;22;20451;-73
2021/12/22 06:03:48;;;;;;;1999.90;999.90;;;;;;;;;;5006689;28;20218;-72
2021/12/22 06:06:34;;;;;;;1999.90;999.90;;;;;;;;;;5015426;28;20639;-72
2021/12/22 06:09:18;;;;;;;1999.90;999.90;;;;;;;;;;5005758;28;20460;-73
2021/12/22 06:12:04;;;;;;;1999.90;999.90;;;;;;;;;;4990241;28;20548;-73
2021/12/22 06:14:49;;;;;;;1999.90;999.90;;;;;;;;;;4992186;28;21133;-73
2021/12/22 06:17:35;;;;;;;1999.90;999.90;;;;;;;;;;4995599;28;20436;-74
2021/12/22 06:20:19;;;;;;;1999.90;999.90;;;;;;;;;;4994172;28;20460;-73
2021/12/22 06:23:05;;;;;;;1999.90;999.90;;;;;;;;;;4975985;28;20417;-74
2021/12/22 06:25:50;;;;;;;1999.90;999.90;;;;;;;;;;4994510;28;20409;-73
2021/12/22 06:28:35;;;;;;;1999.90;999.90;;;;;;;;;;4993057;28;20823;-73
2021/12/22 06:31:20;;;;;;;1999.90;999.90;;;;;;;;;;4990068;28;20438;-73
2021/12/22 06:34:07;;;;;;;1999.90;999.90;;;;;;;;;;4993971;28;20959;-72
2021/12/22 06:36:52;;;;;;;1999.90;999.90;;;;;;;;;;4994378;28;20515;-73
2021/12/22 06:39:37;;;;;;;1999.90;999.90;;;;;;;;;;4990928;28;20574;-72
2021/12/22 06:42:22;;;;;;;1999.90;999.90;;;;;;;;;;4990084;28;20437;-73
2021/12/22 06:45:09;;;;;;;1999.90;999.90;;;;;;;;;;4993041;28;20978;-74
2021/12/22 06:47:53;;;;;;;1999.90;999.90;;;;;;;;;;4993616;28;20455;-73
2021/12/22 06:50:40;;;;;;;1999.90;999.90;;;;;;;;;;4992168;28;20975;-73
2021/12/22 06:53:24;;;;;;;1999.90;999.90;;;;;;;;;;4991663;28;20474;-73
2021/12/22 06:56:09;;;;;;;1999.90;999.90;;;;;;;;;;4994524;28;20472;-73
2021/12/22 06:58:56;;;;;;;1999.90;999.90;;;;;;;;;;4993538;28;20559;-73
2021/12/22 07:01:42;;;;;;;1999.90;999.90;;;;;;;;;;4985993;28;20485;-74
2021/12/22 07:04:27;;;;;;;1999.90;999.90;;;;;;;;;;4994643;28;20490;-74
2021/12/22 07:07:13;;;;;;;1999.90;999.90;;;;;;;;;;4990944;28;20457;-72
2021/12/22 07:09:58;;;;;;;1999.90;999.90;;;;;;;;;;4986072;28;20433;-73
2021/12/22 07:12:45;;;;;;;1999.90;999.90;;;;;;;;;;4990345;28;21003;-73
2021/12/22 07:15:30;;;;;;;1999.90;999.90;;;;;;;;;;4992762;28;20473;-73
2021/12/22 07:18:15;;;;;;;1999.90;999.90;;;;;;;;;;4987872;28;20424;-72
2021/12/22 07:21:01;;;;;;;1999.90;999.90;;;;;;;;;;4994210;28;20990;-73
2021/12/22 07:23:47;;;;;;;1999.90;999.90;;;;;;;;;;4994405;28;20417;-72
2021/12/22 07:26:32;;;;;;;1999.90;999.90;;;;;;;;;;4983612;28;20446;-72
2021/12/22 07:29:16;;;;;;;1999.90;999.90;;;;;;;;;;4984285;28;20595;-73
2021/12/22 07:32:02;;;;;;;1999.90;999.90;;;;;;;;;;4979176;28;20815;-72
2021/12/22 07:34:48;;;;;;;1999.90;999.90;;;;;;;;;;4981106;28;21413;-71
2021/12/22 07:37:38;;;;;;;1999.90;999.90;;;;;;;;;;4977903;28;20462;-73
2021/12/22 07:40:24;;;;;;;1999.90;999.90;;;;;;;;;;4981336;28;20553;-73
2021/12/22 07:43:09;;;;;;;1999.90;999.90;;;;;;;;;;4991101;28;20437;-72
2021/12/22 07:45:54;;;;;;;1999.90;999.90;;;;;;;;;;5000041;28;20568;-73
2021/12/22 07:48:39;;;;;;;1999.90;999.90;;;;;;;;;;4998228;28;20417;-73
2021/12/22 07:51:23;;;;;;;1999.90;999.90;;;;;;;;;;5000293;28;20529;-73
2021/12/22 07:54:08;;;;;;;1999.90;999.90;;;;;;;;;;4999279;28;20499;-74
2021/12/22 07:56:55;;;;;;;1999.90;999.90;;;;;;;;;;5011811;28;20471;-72
2021/12/22 07:59:40;;;;;;;1999.90;999.90;;;;;;;;;;5011222;28;20479;-74
2021/12/22 08:02:25;;;;;;;1999.90;999.90;;;;;;;;;;5007448;28;20980;-73
2021/12/22 08:05:10;;;;;;;1999.90;999.90;;;;;;;;;;5011055;28;20919;-73
2021/12/22 08:07:56;;;;;;;1999.90;999.90;;;;;;;;;;5011034;28;20420;-71
2021/12/22 08:10:42;;;;;;;1999.90;999.90;;;;;;;;;;5011248;28;20452;-74
2021/12/22 08:13:28;;;;;;;1999.90;999.90;;;;;;;;;;5007209;28;20538;-73
2021/12/22 08:16:13;;;;;;;1999.90;999.90;;;;;;;;;;5003534;28;20476;-70
2021/12/22 08:18:58;;;;;;;1999.90;999.90;;;;;;;;;;4997373;28;20962;-73
2021/12/22 08:21:44;;;;;;;1999.90;999.90;;;;;;;;;;4998665;28;20417;-73
2021/12/22 08:24:29;;;;;;;1999.90;999.90;;;;;;;;;;4994889;28;20564;-73
2021/12/22 08:27:14;;;;;;;1999.90;999.90;;;;;;;;;;4996461;28;20414;-74
2021/12/22 08:30:00;;;;;;;1999.90;999.90;;;;;;;;;;4998224;28;20765;-73
2021/12/22 08:32:45;;;;;;;1999.90;999.90;;;;;;;;;;5001513;28;20428;-74
2021/12/22 08:35:30;;;;;;;1999.90;999.90;;;;;;;;;;4998522;28;20561;-74
2021/12/22 08:41:18;;;;;;;1999.90;999.90;;;;;;;;;;5003163;28;20428;-70
2021/12/22 08:44:05;;;;;;;1999.90;999.90;;;;;;;;;;4996905;28;20776;-71
2021/12/22 08:46:55;;;;;;;1999.90;999.90;;;;;;;;;;5000144;28;20481;-73
2021/12/22 08:49:40;;;;;;;1999.90;999.90;;;;;;;;;;4999799;28;20407;-72
2021/12/22 08:52:25;;;;;;;1999.90;999.90;;;;;;;;;;4995385;28;20600;-72
2021/12/22 08:55:10;;;;;;;1999.90;999.90;;;;;;;;;;5000675;28;20428;-72
2021/12/22 08:57:55;;;;;;;1999.90;999.90;;;;;;;;;;4997718;28;20419;-74
2021/12/22 09:00:40;;;;;;;1999.90;999.90;;;;;;;;;;5005144;28;20530;-73
2021/12/22 09:03:27;;;;;;;1999.90;999.90;;;;;;;;;;5006407;28;20460;-73
2021/12/22 09:06:12;;;;;;;1999.90;999.90;;;;;;;;;;4998034;28;20448;-72
2021/12/22 09:08:58;;;;;;;1999.90;999.90;;;;;;;;;;5006437;28;20416;-72
2021/12/22 09:11:43;;;;;;;1999.90;999.90;;;;;;;;;;5000042;28;20843;-72
2021/12/22 09:14:28;;;;;;;1999.90;999.90;;;;;;;;;;5006696;28;21270;-71
2021/12/22 09:17:12;;;;;;;1999.90;999.90;;;;;;;;;;5006816;28;20483;-71
2021/12/22 09:19:59;;;;;;;1999.90;999.90;;;;;;;;;;5004757;28;20445;-73
2021/12/22 09:22:44;;;;;;;1999.90;999.90;;;;;;;;;;5005152;28;20500;-74
2021/12/22 09:25:29;;;;;;;1999.90;999.90;;;;;;;;;;5007071;28;21009;-72
2021/12/22 09:28:14;;;;;;;1999.90;999.90;;;;;;;;;;5001980;28;20507;-73
2021/12/22 09:30:59;;;;;;;1999.90;999.90;;;;;;;;;;5000577;28;20488;-72
2021/12/22 09:33:45;;;;;;;1999.90;999.90;;;;;;;;;;5008210;28;20563;-72
2021/12/22 09:36:31;;;;;;;1999.90;999.90;;;;;;;;;;5003137;28;20463;-73
2021/12/22 09:39:16;;;;;;;1999.90;999.90;;;;;;;;;;5006557;28;20475;-71
2021/12/22 09:42:01;;;;;;;1999.90;999.90;;;;;;;;;;5004702;28;20465;-71
2021/12/22 09:44:47;;;;;;;1999.90;999.90;;;;;;;;;;5004888;28;21031;-73
2021/12/22 09:47:51;;;;;;;1999.90;999.90;;;;;;;;;;5007536;28;20463;-73
2021/12/22 09:50:45;;;;;;;1999.90;999.90;;;;;;;;;;4999040;28;20606;-73
2021/12/22 09:53:35;;;;;;;1999.90;999.90;;;;;;;;;;5002289;28;20462;-73
2021/12/22 09:56:21;;;;;;;1999.90;999.90;;;;;;;;;;5009341;28;20558;-72
2021/12/22 09:59:06;;;;;;;1999.90;999.90;;;;;;;;;;5004187;28;20427;-73
2021/12/22 10:01:51;;;;;;;1999.90;999.90;;;;;;;;;;5008778;28;20416;-73
2021/12/22 10:04:36;;;;;;;1999.90;999.90;;;;;;;;;;5009172;28;20740;-70
2021/12/22 10:07:26;;;;;;;1999.90;999.90;;;;;;;;;;5004670;28;20453;-73
2021/12/22 10:10:13;;;;;;;1999.90;999.90;;;;;;;;;;5007794;28;20490;-71
2021/12/22 10:13:04;;;;;;;1999.90;999.90;;;;;;;;;;5008721;28;20802;-74
2021/12/22 10:15:49;;;;;;;1999.90;999.90;;;;;;;;;;5012925;28;20569;-72
2021/12/22 10:18:34;;;;;;;1999.90;999.90;;;;;;;;;;5008587;28;20423;-73
2021/12/22 10:21:21;;;;;;;1999.90;999.90;;;;;;;;;;5014134;28;20540;-73
2021/12/22 10:24:07;;;;;;;1999.90;999.90;;;;;;;;;;5014490;28;20416;-73
2021/12/22 10:27:03;;;;;;;1999.90;999.90;;;;;;;;;;4992093;28;20445;-73
2021/12/22 10:29:48;;;;;;;1999.90;999.90;;;;;;;;;;4992148;28;20461;-72
2021/12/22 10:32:33;;;;;;;1999.90;999.90;;;;;;;;;;4995222;28;20446;-72
2021/12/22 10:35:17;;;;;;;1999.90;999.90;;;;;;;;;;4994294;28;20461;-72
2021/12/22 10:38:03;;;;;;;1999.90;999.90;;;;;;;;;;4989219;28;20473;-72
2021/12/22 10:40:49;;;;;;;1999.90;999.90;;;;;;;;;;4983803;28;20460;-72
2021/12/22 10:43:40;;;;;;;1999.90;999.90;;;;;;;;;;4990649;28;20481;-73
2021/12/22 10:46:26;;;;;;;1999.90;999.90;;;;;;;;;;4992895;28;20811;-72
2021/12/22 10:49:21;;;;;;;1999.90;999.90;;;;;;;;;;4983071;28;20977;-70
2021/12/22 10:52:07;;;;;;;1999.90;999.90;;;;;;;;;;4980885;28;20462;-73
2021/12/22 10:55:05;;;;;;;1999.90;999.90;;;;;;;;;;4987174;28;20550;-70
2021/12/22 10:57:50;;;;;;;1999.90;999.90;;;;;;;;;;4989799;28;20537;-71
2021/12/22 11:00:37;;;;;;;1999.90;999.90;;;;;;;;;;4985558;28;20441;-72
2021/12/22 11:03:22;;;;;;;1999.90;999.90;;;;;;;;;;4990330;28;20469;-73
2021/12/22 11:06:11;;;;;;;1999.90;999.90;;;;;;;;;;4986339;28;20532;-72
2021/12/22 11:08:58;;;;;;;1999.90;999.90;;;;;;;;;;4991599;28;20501;-72
2021/12/22 11:11:43;;;;;;;1999.90;999.90;;;;;;;;;;4992314;28;20466;-72
2021/12/22 11:14:30;;;;;;;1999.90;999.90;;;;;;;;;;4992285;28;20434;-72
2021/12/22 11:17:18;;;;;;;1999.90;999.90;;;;;;;;;;4991291;28;20582;-71
2021/12/22 11:20:05;;;;;;;1999.90;999.90;;;;;;;;;;4991692;28;20466;-72
2021/12/22 11:22:54;;;;;;;1999.90;999.90;;;;;;;;;;4985235;28;20525;-72
2021/12/22 11:25:40;;;;;;;1999.90;999.90;;;;;;;;;;4991856;28;20419;-72
2021/12/22 11:28:25;;;;;;;1999.90;999.90;;;;;;;;;;4986769;28;20329;-72
2021/12/22 11:31:11;;;;;;;1999.90;999.90;;;;;;;;;;4989932;28;20440;-71
2021/12/22 11:33:58;;;;;;;1999.90;999.90;;;;;;;;;;4992864;28;20959;-74
2021/12/22 11:36:44;;;;;;;1999.90;999.90;;;;;;;;;;4990369;28;20485;-72
2021/12/22 11:39:30;;;;;;;1999.90;999.90;;;;;;;;;;4990067;28;20581;-72
2021/12/22 11:42:16;;;;;;;1999.90;999.90;;;;;;;;;;4991179;28;20825;-71
2021/12/22 11:45:03;;;;;;;1999.90;999.90;;;;;;;;;;4993121;28;20421;-70
2021/12/22 11:47:50;;;;;;;1999.90;999.90;;;;;;;;;;4992696;28;21086;-72
2021/12/22 11:50:36;;;;;;;1999.90;999.90;;;;;;;;;;4993176;28;20433;-72
2021/12/22 11:53:21;;;;;;;1999.90;999.90;;;;;;;;;;4992763;28;20513;-72
2021/12/22 11:56:06;;;;;;;1999.90;999.90;;;;;;;;;;4983913;28;20442;-72
2021/12/22 11:58:51;;;;;;;1999.90;999.90;;;;;;;;;;4987574;28;20443;-72
2021/12/22 12:01:36;;;;;;;1999.90;999.90;;;;;;;;;;4993328;28;20463;-73
2021/12/22 12:04:21;;;;;;;1999.90;999.90;;;;;;;;;;4987196;28;20788;-73
2021/12/22 12:07:08;;;;;;;1999.90;999.90;;;;;;;;;;4984286;28;20439;-73
2021/12/22 12:09:53;;;;;;;1999.90;999.90;;;;;;;;;;4982251;28;20505;-73
2021/12/22 12:12:49;;;;;;;1999.90;999.90;;;;;;;;;;4984801;28;20466;-72
2021/12/22 12:16:00;;;;;;;1999.90;999.90;;;;;;;;;;4987529;28;20501;-73
2021/12/22 12:22:11;;;;;;;1999.90;999.90;;;;;;;;;;4984831;28;20489;-73
2021/12/22 12:25:00;;;;;;;1999.90;999.90;;;;;;;;;;4993097;28;20432;-74
2021/12/22 12:27:47;;;;;;;1999.90;999.90;;;;;;;;;;4989065;28;20453;-72
2021/12/22 12:30:45;;;;;;;1999.90;999.90;;;;;;;;;;4981966;28;20446;-74
2021/12/22 12:33:30;;;;;;;1999.90;999.90;;;;;;;;;;4985287;28;20806;-72
2021/12/22 12:36:16;;;;;;;1999.90;999.90;;;;;;;;;;4988152;28;21088;-72
2021/12/22 12:39:03;;;;;;;1999.90;999.90;;;;;;;;;;4986247;28;20529;-71
2021/12/22 12:42:00;;;;;;;1999.90;999.90;;;;;;;;;;4990478;28;20460;-74
2021/12/22 12:44:45;;;;;;;1999.90;999.90;;;;;;;;;;4984133;28;20442;-73
2021/12/22 12:47:30;;;;;;;1999.90;999.90;;;;;;;;;;4985182;28;20943;-74
2021/12/22 12:50:19;;;;;;;1999.90;999.90;;;;;;;;;;4988240;28;20224;-71
2021/12/22 12:53:06;;;;;;;1999.90;999.90;;;;;;;;;;4987163;28;20489;-75
2021/12/22 12:56:04;;;;;;;1999.90;999.90;;;;;;;;;;4987125;28;20570;-75
2021/12/22 12:58:53;;;;;;;1999.90;999.90;;;;;;;;;;4979293;28;20457;-72
2021/12/22 13:01:53;;;;;;;1999.90;999.90;;;;;;;;;;4985059;28;20507;-73
2021/12/22 13:04:39;;;;;;;1999.90;999.90;;;;;;;;;;4985758;28;20536;-73
2021/12/22 13:07:24;;;;;;;1999.90;999.90;;;;;;;;;;4992247;28;20430;-73
2021/12/22 13:10:14;;;;;;;1999.90;999.90;;;;;;;;;;4992386;28;20425;-76
2021/12/22 13:15:53;;;;;;;1999.90;999.90;;;;;;;;;;4987890;28;20432;-76
2021/12/22 13:18:38;;;;;;;1999.90;999.90;;;;;;;;;;4991445;28;20490;-76
2021/12/22 13:21:26;;;;;;;1999.90;999.90;;;;;;;;;;4977149;28;20490;-75
2021/12/22 13:24:18;;;;;;;1999.90;999.90;;;;;;;;;;4977750;28;20434;-72
2021/12/22 13:27:04;;;;;;;1999.90;999.90;;;;;;;;;;4983574;28;20418;-74
2021/12/22 13:43:05;;;;;;;1999.90;999.90;;;;;;;;;;5109089;27;20540;-74
2021/12/22 13:45:50;;;;;;;1999.90;999.90;;;;;;;;;;5109158;28;20421;-74
2021/12/22 13:48:37;;;;;;;1999.90;999.90;;;;;;;;;;5109124;28;20482;-74
2021/12/22 13:51:23;;;;;;;1999.90;999.90;;;;;;;;;;5105536;28;20489;-74
2021/12/22 13:54:10;;;;;;;1999.90;999.90;;;;;;;;;;5088976;28;20417;-73
2021/12/22 13:56:58;;;;;;;1999.90;999.90;;;;;;;;;;5088924;28;20496;-74
2021/12/22 13:59:49;;;;;;;1999.90;999.90;;;;;;;;;;5088575;28;20423;-76
2021/12/22 14:02:35;;;;;;;1999.90;999.90;;;;;;;;;;5088669;28;20488;-75
2021/12/22 14:05:20;;;;;;;1999.90;999.90;;;;;;;;;;5088749;28;20839;-73
2021/12/22 14:08:22;;;;;;;1999.90;999.90;;;;;;;;;;5088060;28;20950;-76
2021/12/22 14:11:23;;;;;;;1999.90;999.90;;;;;;;;;;5088346;28;20419;-76
2021/12/22 14:14:28;;;;;;;1999.90;999.90;;;;;;;;;;5088618;28;20211;-74
2021/12/22 14:17:17;;;;;;;1999.90;999.90;;;;;;;;;;5088628;28;20423;-76
2021/12/22 14:20:05;;;;;;;1999.90;999.90;;;;;;;;;;5088146;28;20452;-75
2021/12/22 14:22:56;;;;;;;1999.90;999.90;;;;;;;;;;5088301;28;20408;-75
2021/12/22 14:25:41;;;;;;;1999.90;999.90;;;;;;;;;;5088405;28;20414;-76
2021/12/22 14:28:27;;;;;;;1999.90;999.90;;;;;;;;;;5087989;28;20933;-75
2021/12/22 14:31:14;;;;;;;1999.90;999.90;;;;;;;;;;5087878;28;20476;-75
2021/12/22 14:34:07;;;;;;;1999.90;999.90;;;;;;;;;;5088188;28;20467;-75
2021/12/22 14:36:53;;;;;;;1999.90;999.90;;;;;;;;;;5088402;28;20504;-72
2021/12/22 14:39:39;;;;;;;1999.90;999.90;;;;;;;;;;5089813;28;20491;-75
2021/12/22 14:42:25;;;;;;;1999.90;999.90;;;;;;;;;;5095181;28;21017;-74
2021/12/22 14:45:18;;;;;;;1999.90;999.90;;;;;;;;;;5085591;28;20784;-75
2021/12/22 14:48:05;;;;;;;1999.90;999.90;;;;;;;;;;5081575;28;20437;-75
2021/12/22 14:51:02;;;;;;;1999.90;999.90;;;;;;;;;;5082523;28;20523;-76
2021/12/22 14:53:48;;;;;;;1999.90;999.90;;;;;;;;;;5076048;28;20464;-75
2021/12/22 14:56:38;;;;;;;1999.90;999.90;;;;;;;;;;5087384;28;20497;-75
2021/12/22 14:59:24;;;;;;;1999.90;999.90;;;;;;;;;;5080023;28;20439;-77
2021/12/22 15:02:10;;;;;;;1999.90;999.90;;;;;;;;;;5082251;28;20523;-75
2021/12/22 15:04:55;;;;;;;1999.90;999.90;;;;;;;;;;5086523;28;21027;-75
2021/12/22 15:07:41;;;;;;;1999.90;999.90;;;;;;;;;;5091903;28;21078;-75
2021/12/22 15:10:26;;;;;;;1999.90;999.90;;;;;;;;;;5086434;28;20215;-75
2021/12/22 15:13:11;;;;;;;1999.90;999.90;;;;;;;;;;5073784;28;20407;-75
2021/12/22 15:15:56;;;;;;;1999.90;999.90;;;;;;;;;;5073609;28;20415;-75
2021/12/22 15:18:41;;;;;;;1999.90;999.90;;;;;;;;;;5076367;28;20477;-73
2021/12/22 15:21:26;;;;;;;1999.90;999.90;;;;;;;;;;5073839;28;20513;-73
2021/12/22 15:24:13;;;;;;;1999.90;999.90;;;;;;;;;;5085030;28;20458;-74
2021/12/22 15:26:58;;;;;;;1999.90;999.90;;;;;;;;;;5091572;28;20584;-75
2021/12/22 15:29:43;;;;;;;1999.90;999.90;;;;;;;;;;5092919;28;20412;-76
2021/12/22 15:32:28;;;;;;;1999.90;999.90;;;;;;;;;;5077691;28;20852;-74
2021/12/22 15:35:13;;;;;;;1999.90;999.90;;;;;;;;;;5073661;28;20421;-74
2021/12/22 15:37:57;;;;;;;1999.90;999.90;;;;;;;;;;5085821;28;20512;-75
2021/12/22 15:40:44;;;;;;;1999.90;999.90;;;;;;;;;;5091901;28;20224;-74
2021/12/22 15:43:29;;;;;;;1999.90;999.90;;;;;;;;;;5086200;28;20901;-74
2021/12/22 15:46:14;;;;;;;1999.90;999.90;;;;;;;;;;5073381;28;20402;-74
2021/12/22 15:48:59;;;;;;;1999.90;999.90;;;;;;;;;;5072840;28;20431;-75
2021/12/22 15:51:44;;;;;;;1999.90;999.90;;;;;;;;;;5076878;28;20503;-75
2021/12/22 15:54:29;;;;;;;1999.90;999.90;;;;;;;;;;5091309;28;21019;-73
2021/12/22 15:57:15;;;;;;;1999.90;999.90;;;;;;;;;;5093184;28;20421;-74
2021/12/22 16:00:00;;;;;;;1999.90;999.90;;;;;;;;;;5092003;28;20437;-72
2021/12/22 16:02:45;;;;;;;1999.90;999.90;;;;;;;;;;5093246;28;20509;-73
2021/12/22 16:05:30;;;;;;;1999.90;999.90;;;;;;;;;;5074281;28;20433;-74
2021/12/22 16:08:15;;;;;;;1999.90;999.90;;;;;;;;;;5075462;28;20529;-74
2021/12/22 16:11:02;;;;;;;1999.90;999.90;;;;;;;;;;5082422;28;20492;-74
2021/12/22 16:13:48;;;;;;;1999.90;999.90;;;;;;;;;;5087094;28;20450;-74
2021/12/22 16:16:34;;;;;;;1999.90;999.90;;;;;;;;;;5092063;28;20444;-74
2021/12/22 16:19:19;;;;;;;1999.90;999.90;;;;;;;;;;5089578;28;20445;-73
2021/12/22 16:22:04;;;;;;;1999.90;999.90;;;;;;;;;;5084979;28;20963;-74
2021/12/22 16:24:49;;;;;;;1999.90;999.90;;;;;;;;;;5084826;28;20519;-73
2021/12/22 16:27:34;;;;;;;1999.90;999.90;;;;;;;;;;5089099;28;20954;-73
2021/12/22 16:30:22;;;;;;;1999.90;999.90;;;;;;;;;;5092406;28;20824;-74
2021/12/22 16:33:07;;;;;;;1999.90;999.90;;;;;;;;;;5088899;28;20436;-75
2021/12/22 16:35:52;;;;;;;1999.90;999.90;;;;;;;;;;5091403;28;20203;-74
2021/12/22 16:38:37;;;;;;;1999.90;999.90;;;;;;;;;;5092364;28;20574;-74
2021/12/22 16:41:23;;;;;;;1999.90;999.90;;;;;;;;;;5092289;28;20456;-74
2021/12/22 16:44:09;;;;;;;1999.90;999.90;;;;;;;;;;5086118;28;20461;-74
2021/12/22 16:46:56;;;;;;;1999.90;999.90;;;;;;;;;;5092460;28;20435;-74
2021/12/22 16:49:41;;;;;;;1999.90;999.90;;;;;;;;;;5087070;28;20447;-74
2021/12/22 16:52:26;;;;;;;1999.90;999.90;;;;;;;;;;5083005;28;20555;-74
2021/12/22 16:55:11;;;;;;;1999.90;999.90;;;;;;;;;;5088461;28;20429;-73
2021/12/22 16:58:01;;;;;;;1999.90;999.90;;;;;;;;;;5072869;28;20509;-71
2021/12/22 17:00:45;;;;;;;1999.90;999.90;;;;;;;;;;5091785;28;20484;-73
2021/12/22 17:03:32;;;;;;;1999.90;999.90;;;;;;;;;;5094317;28;20238;-72
2021/12/22 17:06:17;;;;;;;1999.90;999.90;;;;;;;;;;5080994;28;20434;-73
2021/12/22 17:09:02;;;;;;;1999.90;999.90;;;;;;;;;;5073990;28;20521;-74
2021/12/22 17:11:48;;;;;;;1999.90;999.90;;;;;;;;;;5075039;28;20473;-74
2021/12/22 17:14:33;;;;;;;1999.90;999.90;;;;;;;;;;5072882;28;20422;-73
2021/12/22 17:17:20;;;;;;;1999.90;999.90;;;;;;;;;;5071718;28;20418;-73
2021/12/22 17:20:09;;;;;;;1999.90;999.90;;;;;;;;;;5084580;28;21007;-72
2021/12/22 17:22:53;;;;;;;1999.90;999.90;;;;;;;;;;5089262;28;20420;-74
2021/12/22 17:25:38;;;;;;;1999.90;999.90;;;;;;;;;;5076824;28;20964;-72
2021/12/22 17:28:24;;;;;;;1999.90;999.90;;;;;;;;;;5075352;28;20465;-72
2021/12/22 17:31:09;;;;;;;1999.90;999.90;;;;;;;;;;5091332;28;20436;-72
2021/12/22 17:33:54;;;;;;;1999.90;999.90;;;;;;;;;;5085921;28;20433;-72
2021/12/22 17:36:40;;;;;;;1999.90;999.90;;;;;;;;;;5086038;28;20486;-72
2021/12/22 17:39:25;;;;;;;1999.90;999.90;;;;;;;;;;5087395;28;20963;-72
2021/12/22 17:42:10;;;;;;;1999.90;999.90;;;;;;;;;;5077295;28;20440;-72
2021/12/22 17:44:55;;;;;;;1999.90;999.90;;;;;;;;;;5089528;28;20425;-72
2021/12/22 17:47:41;;;;;;;1999.90;999.90;;;;;;;;;;5071430;28;20495;-72
2021/12/22 17:50:27;;;;;;;1999.90;999.90;;;;;;;;;;5071411;28;20418;-72
2021/12/22 17:53:13;;;;;;;1999.90;999.90;;;;;;;;;;5071148;28;20457;-72
2021/12/22 17:55:58;;;;;;;1999.90;999.90;;;;;;;;;;5074002;28;20383;-72
2021/12/22 17:58:43;;;;;;;1999.90;999.90;;;;;;;;;;5086974;28;20701;-72
2021/12/22 18:01:28;;;;;;;1999.90;999.90;;;;;;;;;;5091029;28;20510;-72
2021/12/22 18:04:13;;;;;;;1999.90;999.90;;;;;;;;;;5086124;28;20634;-73
2021/12/22 18:06:58;;;;;;;1999.90;999.90;;;;;;;;;;5090132;28;20529;-73
2021/12/22 18:09:44;;;;;;;1999.90;999.90;;;;;;;;;;5091017;28;20800;-72
2021/12/22 18:12:29;;;;;;;1999.90;999.90;;;;;;;;;;5089437;28;20522;-71
2021/12/22 18:15:14;;;;;;;1999.90;999.90;;;;;;;;;;5090271;28;20413;-71
2021/12/22 18:17:59;;;;;;;1999.90;999.90;;;;;;;;;;5092441;28;20416;-71
2021/12/22 18:20:44;;;;;;;1999.90;999.90;;;;;;;;;;5095272;28;20466;-72
2021/12/22 18:23:28;;;;;;;1999.90;999.90;;;;;;;;;;5087460;28;20561;-74
2021/12/22 18:26:15;;;;;;;1999.90;999.90;;;;;;;;;;5088695;28;20694;-73
2021/12/22 18:29:05;;;;;;;1999.90;999.90;;;;;;;;;;5094927;28;20417;-72
2021/12/22 18:31:50;;;;;;;1999.90;999.90;;;;;;;;;;5088484;28;20461;-73
2021/12/22 18:34:36;;;;;;;1999.90;999.90;;;;;;;;;;5082803;28;20445;-72
2021/12/22 18:37:26;;;;;;;1999.90;999.90;;;;;;;;;;5094508;28;20478;-73
2021/12/22 18:40:19;;;;;;;1999.90;999.90;;;;;;;;;;5095006;28;20417;-73
2021/12/22 18:43:06;;;;;;;1999.90;999.90;;;;;;;;;;5090501;28;20564;-73
2021/12/22 18:45:52;;;;;;;1999.90;999.90;;;;;;;;;;5093124;28;20483;-72
2021/12/22 18:48:37;;;;;;;1999.90;999.90;;;;;;;;;;5094357;28;20421;-72
2021/12/22 18:51:24;;;;;;;1999.90;999.90;;;;;;;;;;5089885;28;20510;-73
2021/12/22 18:54:09;;;;;;;1999.90;999.90;;;;;;;;;;5092592;28;20412;-73
2021/12/22 18:56:54;;;;;;;1999.90;999.90;;;;;;;;;;5094638;28;20426;-72
2021/12/22 18:59:41;;;;;;;1999.90;999.90;;;;;;;;;;5089232;28;20518;-73
2021/12/22 19:02:26;;;;;;;1999.90;999.90;;;;;;;;;;5092981;28;20444;-71
2021/12/22 19:05:11;;;;;;;1999.90;999.90;;;;;;;;;;5074164;28;20441;-72
2021/12/22 19:07:56;;;;;;;1999.90;999.90;;;;;;;;;;5073655;28;20414;-73
2021/12/22 19:10:43;;;;;;;1999.90;999.90;;;;;;;;;;5086265;28;20464;-73
2021/12/22 19:13:28;;;;;;;1999.90;999.90;;;;;;;;;;5077958;28;20511;-72
2021/12/22 19:16:14;;;;;;;1999.90;999.90;;;;;;;;;;5085943;28;20453;-72
2021/12/22 19:19:01;;;;;;;1999.90;999.90;;;;;;;;;;5093019;28;20397;-72
2021/12/22 19:21:46;;;;;;;1999.90;999.90;;;;;;;;;;5093214;28;20219;-72
2021/12/22 19:24:31;;;;;;;1999.90;999.90;;;;;;;;;;5093765;28;20833;-72
2021/12/22 19:27:15;;;;;;;1999.90;999.90;;;;;;;;;;5085544;28;20499;-71
2021/12/22 19:30:00;;;;;;;1999.90;999.90;;;;;;;;;;5088026;28;20835;-72
2021/12/22 19:32:47;;;;;;;1999.90;999.90;;;;;;;;;;5089218;28;21010;-73
2021/12/22 19:35:32;;;;;;;1999.90;999.90;;;;;;;;;;5093752;28;20416;-72
2021/12/22 19:38:18;;;;;;;1999.90;999.90;;;;;;;;;;5093566;28;20425;-72
2021/12/22 19:41:03;;;;;;;1999.90;999.90;;;;;;;;;;5085328;28;20531;-72
2021/12/22 19:43:48;;;;;;;1999.90;999.90;;;;;;;;;;5093792;28;20416;-72
2021/12/22 19:46:33;;;;;;;1999.90;999.90;;;;;;;;;;5092432;28;20920;-71
2021/12/22 19:49:19;;;;;;;1999.90;999.90;;;;;;;;;;5093364;28;20802;-71
2021/12/22 19:52:05;;;;;;;1999.90;999.90;;;;;;;;;;5092972;28;20588;-72
2021/12/22 19:54:50;;;;;;;1999.90;999.90;;;;;;;;;;5088149;28;21048;-72
2021/12/22 19:57:35;;;;;;;1999.90;999.90;;;;;;;;;;5089614;28;20422;-72
2021/12/22 20:00:21;;;;;;;1999.90;999.90;;;;;;;;;;5073494;28;20449;-71
2021/12/22 20:03:07;;;;;;;1999.90;999.90;;;;;;;;;;5085453;28;20547;-72
2021/12/22 20:05:54;;;;;;;1999.90;999.90;;;;;;;;;;5087717;28;20433;-71
2021/12/22 20:08:39;;;;;;;1999.90;999.90;;;;;;;;;;5092497;28;20434;-70
2021/12/22 20:11:25;;;;;;;1999.90;999.90;;;;;;;;;;5087910;28;20430;-72
2021/12/22 20:14:10;;;;;;;1999.90;999.90;;;;;;;;;;5075289;28;20461;-73
2021/12/22 20:16:56;;;;;;;1999.90;999.90;;;;;;;;;;5092194;28;20442;-72
2021/12/22 20:19:42;;;;;;;1999.90;999.90;;;;;;;;;;5092629;28;20431;-72
2021/12/22 20:22:28;;;;;;;1999.90;999.90;;;;;;;;;;5090579;28;20465;-72
2021/12/22 20:25:13;;;;;;;1999.90;999.90;;;;;;;;;;5084897;28;20455;-71
2021/12/22 20:27:58;;;;;;;1999.90;999.90;;;;;;;;;;5084546;28;20952;-71
2021/12/22 20:30:43;;;;;;;1999.90;999.90;;;;;;;;;;5072701;28;20527;-72
2021/12/22 20:33:28;;;;;;;1999.90;999.90;;;;;;;;;;5087611;28;20457;-74
2021/12/22 20:36:13;;;;;;;1999.90;999.90;;;;;;;;;;5072438;28;20419;-74
2021/12/22 20:38:59;;;;;;;1999.90;999.90;;;;;;;;;;5074378;28;20458;-74
2021/12/22 20:41:44;;;;;;;1999.90;999.90;;;;;;;;;;5080759;28;20469;-72
2021/12/22 20:44:29;;;;;;;1999.90;999.90;;;;;;;;;;5092414;28;20213;-73
2021/12/22 20:47:14;;;;;;;1999.90;999.90;;;;;;;;;;5092266;28;20834;-73
2021/12/22 20:49:59;;;;;;;1999.90;999.90;;;;;;;;;;5091686;28;20423;-71
2021/12/22 20:52:44;;;;;;;1999.90;999.90;;;;;;;;;;5089683;28;20547;-74
2021/12/22 20:55:30;;;;;;;1999.90;999.90;;;;;;;;;;5092135;28;20429;-73
2021/12/22 20:58:15;;;;;;;1999.90;999.90;;;;;;;;;;5092191;28;20518;-73
2021/12/22 21:01:00;;;;;;;1999.90;999.90;;;;;;;;;;5085485;28;20467;-73
2021/12/22 21:03:46;;;;;;;1999.90;999.90;;;;;;;;;;5092085;28;20467;-74
2021/12/22 21:06:31;;;;;;;1999.90;999.90;;;;;;;;;;5091836;28;20931;-72
2021/12/22 21:09:16;;;;;;;1999.90;999.90;;;;;;;;;;5090681;28;20800;-73
2021/12/22 21:12:03;;;;;;;1999.90;999.90;;;;;;;;;;5085876;28;20228;-73
2021/12/22 21:14:48;;;;;;;1999.90;999.90;;;;;;;;;;5091688;28;20854;-74
2021/12/22 21:17:33;;;;;;;1999.90;999.90;;;;;;;;;;5091875;28;20430;-73
2021/12/22 21:20:18;;;;;;;1999.90;999.90;;;;;;;;;;5090950;28;20427;-73
2021/12/22 21:23:04;;;;;;;1999.90;999.90;;;;;;;;;;5083638;28;20488;-74
2021/12/22 21:25:50;;;;;;;1999.90;999.90;;;;;;;;;;5092025;28;21022;-73
2021/12/22 21:28:36;;;;;;;1999.90;999.90;;;;;;;;;;5091687;28;20419;-74
2021/12/22 21:31:21;;;;;;;1999.90;999.90;;;;;;;;;;5085969;28;20842;-74
2021/12/22 21:34:06;;;;;;;1999.90;999.90;;;;;;;;;;5083837;28;20442;-73
2021/12/22 21:36:51;;;;;;;1999.90;999.90;;;;;;;;;;5091717;28;20426;-73
2021/12/22 21:39:36;;;;;;;1999.90;999.90;;;;;;;;;;5091589;28;20424;-73
2021/12/22 21:42:22;;;;;;;1999.90;999.90;;;;;;;;;;5086141;28;20498;-73
2021/12/22 21:45:10;;;;;;;1999.90;999.90;;;;;;;;;;5071618;28;20414;-72
2021/12/22 21:47:57;;;;;;;1999.90;999.90;;;;;;;;;;5081591;28;20974;-73
2021/12/22 21:50:42;;;;;;;1999.90;999.90;;;;;;;;;;5081277;28;20480;-74